El Rito, NM (87530)

12:02 AM MST on February 09, 2016 (GMT -0700)
Los Alamos | | Change Station
CLOSE
Current Station
Airport
Location: Los Alamos,
Elevation: 7172 ft
Nearby Weather Stations

Elev 7172 ft 35.88 °N, 106.27 °W | Updated 7 minutes ago

Partly Cloudy
Partly Cloudy
38 °F
Feels Like 38 °F
N
0
Wind Variable Wind from North

Today
High -- | Low -- °F
--% Chance of Precip.
Yesterday
High -- | Low -- °F
Precip. -- in
Pressure 30.43 in
Visibility 10.0 miles
Clouds Mostly Cloudy 10000 ft
Dew Point 19 °F
Humidity 47%
Rainfall 0.00 in
Snow Depth Not available.
6:59 AM 5:39 PM
New Moon, 1% visible
METAR KLAM 090655Z AUTO 00000KT 10SM BKN100 03/M07 A3043 RMK AO2 T00321073
Pressure 30.43 in
Visibility 10.0 miles
Clouds Mostly Cloudy 10000 ft
Dew Point 19 °F
Humidity 47%
Rainfall 0.00 in
Snow Depth Not available.
6:59 AM 5:39 PM
New Moon, 1% visible
METAR KLAM 090655Z AUTO 00000KT 10SM BKN100 03/M07 A3043 RMK AO2 T00321073

10-Day Weather Forecast

Almanac

Astronomy

Feb. 09, 2016 Rise Set
Actual Time
Civil Twilight
Nautical Twilight
Astronomical Twilight
Moon
Length of Visible Light
Length of Day
Tomorrow will be .
, % of the Moon is Illuminated

Today's Extremes

State Highs State Lows

Community

WunderPhotos

Upload Photos

1,891,571 photos uploaded!

WunderBlog® & News

Nearby

Air Quality

  Air Quality AQ Index Pollutant
Not available.

Snow Depth

Station Depth Elevation

Earthquake Activity

City Distance Mag. Time & Date
Minimum magnitude displayed is 2.5.

Coastal Water Temperatures

Place Temperature

Stations

Nearby Weather Stations

Station Location Temp. Windchill Dew Point Humidity Wind Precip. Elev Updated Type
                   

Watches & Warnings

There are currently no watches in effect.